Albertville, AL

1:16 PM CST on December 14, 2017 (GMT -0600)
Albertville

Weather History for K8A0 - March, 2013

Change the Weather History Date:

Thursday, March 21, 2013

  Actual Average (KGAD) Record (KGAD)
Temperature  
Mean Temperature 36 °F -  
Max Temperature 44 °F 62 °F 87 °F (2017)
Min Temperature 28 °F 38 °F 26 °F (1947)
Degree Days  
Heating Degree Days 29    
Moisture  
Dew Point 17 °F    
Average Humidity 47    
Maximum Humidity 81    
Minimum Humidity 25    
Precipitation  
Precipitation 0.00 in - - ()
Sea Level Pressure  
Sea Level Pressure 29.98 in    
Wind  
Wind Speed 7 mph (NNW)    
Max Wind Speed 15 mph    
Max Gust Speed 18 mph    
Visibility 10 miles    
Events      
Averages and records for this station are not official NWS values.
T = Trace of Precipitation, MM = Missing Value Source: NWS Daily Summary

Daily Weather History Graph

Daily Weather History Graph

Search for Another Location

Airport or City:

Trip Planner

Search our weather history database for the weather conditions in past years. The results will help you decide how hot, cold, wet, or windy it might be!

Date:

Astronomy

Mar. 21, 2013 Rise Set
Actual Time 6:46 AM CDT 6:57 PM CDT
Civil Twilight 6:21 AM CDT 7:22 PM CDT
Nautical Twilight 5:52 AM CDT 7:51 PM CDT
Astronomical Twilight 5:23 AM CDT 8:21 PM CDT
Moon 1:39 PM CDT (3/21) 2:55 AM CDT (3/21)
Length of Visible Light 13h 00m
Length of Day
12h 10m
Waxing Gibbous, 69% of the Moon is Illuminated
Mar 21
Waxing Gibbous
Mar 27
Full
Apr 2
Last Quarter
Apr 10
New
Apr 18
First Quarter

Hourly Weather History & Observations

Time (CDT) Temp. Windchill Dew Point Humidity Pressure Visibility Wind Dir Wind Speed Gust Speed Precip Events Conditions
12:15 AM 39.2 °F 33.6 °F 26.6 °F 61% 29.97 in 10.0 mi WNW 8.1 mph - N/A   Clear
12:55 AM 39.2 °F 34.2 °F 26.6 °F 61% 29.96 in 10.0 mi NW 6.9 mph - N/A   Clear
1:15 AM 37.4 °F 29.8 °F 28.4 °F 70% 29.96 in 10.0 mi North 11.5 mph - N/A   Clear
1:55 AM 35.6 °F 28.0 °F 28.4 °F 75% 29.97 in 10.0 mi North 10.4 mph - N/A   Clear
2:15 AM 35.6 °F 28.0 °F 28.4 °F 75% 29.97 in 10.0 mi North 10.4 mph 17.3 mph N/A   Scattered Clouds
2:35 AM 35.6 °F 30.7 °F 28.4 °F 75% 29.97 in 10.0 mi North 5.8 mph - N/A   Clear
2:55 AM 33.8 °F - 28.4 °F 81% 29.97 in 10.0 mi Calm Calm - N/A   Clear
3:15 AM 33.8 °F 28.6 °F 28.4 °F 81% 29.97 in 10.0 mi NNE 5.8 mph - N/A   Scattered Clouds
3:35 AM 33.8 °F 27.7 °F 28.4 °F 81% 29.97 in 10.0 mi North 6.9 mph - N/A   Scattered Clouds
3:55 AM 32.0 °F 23.6 °F 26.6 °F 80% 29.97 in 10.0 mi North 10.4 mph - N/A   Clear
4:15 AM 32.0 °F 24.2 °F 24.8 °F 75% 29.98 in 10.0 mi North 9.2 mph - N/A   Clear
4:55 AM 32.0 °F 23.6 °F 21.2 °F 64% 29.97 in 10.0 mi North 10.4 mph - N/A   Clear
5:15 AM 30.2 °F 21.3 °F 21.2 °F 69% 29.98 in 10.0 mi North 10.4 mph - N/A   Clear
5:35 AM 30.2 °F 23.4 °F 19.4 °F 64% 29.99 in 10.0 mi North 6.9 mph - N/A   Clear
5:55 AM 30.2 °F 22.6 °F 19.4 °F 64% 30.00 in 10.0 mi North 8.1 mph - N/A   Clear
6:15 AM 30.2 °F 23.4 °F 19.4 °F 64% 29.99 in 10.0 mi North 6.9 mph - N/A   Clear
6:35 AM 30.2 °F 22.6 °F 19.4 °F 64% 30.00 in 10.0 mi North 8.1 mph - N/A   Clear
6:55 AM 28.4 °F 21.2 °F 17.6 °F 64% 30.00 in 10.0 mi North 6.9 mph - N/A   Clear
7:15 AM 30.2 °F 23.4 °F 17.6 °F 60% 30.01 in 10.0 mi North 6.9 mph - N/A   Clear
7:35 AM 30.2 °F 24.3 °F 17.6 °F 60% 30.02 in 10.0 mi NNW 5.8 mph - N/A   Clear
7:55 AM 30.2 °F 21.9 °F 14.0 °F 51% 30.03 in 10.0 mi North 9.2 mph - N/A   Clear
8:15 AM 32.0 °F 24.8 °F 14.0 °F 48% 30.04 in 10.0 mi NNW 8.1 mph - N/A   Clear
8:35 AM 32.0 °F 23.6 °F 14.0 °F 48% 30.04 in 10.0 mi North 10.4 mph 16.1 mph N/A   Clear
8:55 AM 32.0 °F 24.2 °F 12.2 °F 44% 30.05 in 10.0 mi North 9.2 mph - N/A   Clear
9:15 AM 32.0 °F 24.8 °F 12.2 °F 44% 30.06 in 10.0 mi NNW 8.1 mph 16.1 mph N/A   Clear
9:35 AM 32.0 °F 23.0 °F 12.2 °F 44% 30.06 in 10.0 mi NW 11.5 mph - N/A   Clear
9:55 AM 32.0 °F 21.6 °F 10.4 °F 41% 30.06 in 10.0 mi NNW 15.0 mph 18.4 mph N/A   Clear
10:15 AM 32.0 °F 23.0 °F 10.4 °F 41% 30.05 in 10.0 mi NNW 11.5 mph 18.4 mph N/A   Clear
10:35 AM 33.8 °F 25.3 °F 8.6 °F 35% 30.05 in 10.0 mi NNW 11.5 mph 18.4 mph N/A   Clear
10:55 AM 33.8 °F 25.3 °F 10.4 °F 38% 30.04 in 10.0 mi NW 11.5 mph - N/A   Clear
11:15 AM 35.6 °F 29.2 °F 10.4 °F 35% 30.04 in 10.0 mi NW 8.1 mph - N/A   Clear
11:35 AM 35.6 °F 29.2 °F 10.4 °F 35% 30.03 in 10.0 mi NW 8.1 mph - N/A   Clear
11:55 AM 37.4 °F 30.3 °F 10.4 °F 33% 30.02 in 10.0 mi NW 10.4 mph - N/A   Clear
12:15 PM 37.4 °F 31.4 °F 10.4 °F 33% 30.02 in 10.0 mi North 8.1 mph - N/A   Clear
12:35 PM 39.2 °F 33.0 °F 10.4 °F 31% 30.02 in 10.0 mi North 9.2 mph - N/A   Clear
12:55 PM 39.2 °F 34.2 °F 10.4 °F 31% 30.02 in 10.0 mi North 6.9 mph - N/A   Clear
1:15 PM 41.0 °F 35.8 °F 10.4 °F 29% 30.01 in 10.0 mi North 8.1 mph - N/A   Clear
1:35 PM 41.0 °F 35.2 °F 10.4 °F 29% 30.00 in 10.0 mi NW 9.2 mph - N/A   Clear
1:55 PM 42.8 °F 38.0 °F 12.2 °F 29% 29.99 in 10.0 mi NNW 8.1 mph - N/A   Clear
2:15 PM 42.8 °F 37.0 °F 8.6 °F 25% 29.98 in 10.0 mi NNW 10.4 mph 17.3 mph N/A   Clear
2:35 PM 42.8 °F 41.1 °F 10.4 °F 27% 29.97 in 10.0 mi NNW 3.5 mph - N/A   Clear
2:55 PM 44.6 °F 40.7 °F 10.4 °F 25% 29.96 in 10.0 mi NNW 6.9 mph - N/A   Clear
3:15 PM 44.6 °F 39.7 °F 10.4 °F 25% 29.96 in 10.0 mi NNW 9.2 mph 16.1 mph N/A   Clear
3:55 PM 44.6 °F 40.7 °F 10.4 °F 25% 29.95 in 10.0 mi WNW 6.9 mph - N/A   Clear
4:15 PM 44.6 °F 40.2 °F 10.4 °F 25% 29.94 in 10.0 mi North 8.1 mph 16.1 mph N/A   Clear
4:35 PM 44.6 °F 39.7 °F 12.2 °F 27% 29.94 in 10.0 mi North 9.2 mph - N/A   Clear
4:55 PM 44.6 °F 41.4 °F 12.2 °F 27% 29.93 in 10.0 mi North 5.8 mph - N/A   Clear
5:15 PM 44.6 °F 40.7 °F 12.2 °F 27% 29.93 in 10.0 mi North 6.9 mph - N/A   Clear
5:35 PM 42.8 °F 40.1 °F 12.2 °F 29% 29.93 in 10.0 mi NNW 4.6 mph - N/A   Clear
5:55 PM 42.8 °F 41.1 °F 14.0 °F 31% 29.93 in 10.0 mi WNW 3.5 mph - N/A   Clear
6:15 PM 42.8 °F 41.1 °F 14.0 °F 31% 29.93 in 10.0 mi NNW 3.5 mph - N/A   Clear
6:35 PM 42.8 °F 41.1 °F 14.0 °F 31% 29.94 in 10.0 mi NNW 3.5 mph - N/A   Clear
6:55 PM 42.8 °F 41.1 °F 14.0 °F 31% 29.95 in 10.0 mi NW 3.5 mph - N/A   Clear
7:15 PM 41.0 °F - 17.6 °F 39% 29.94 in 10.0 mi Calm Calm - N/A   Clear
7:35 PM 41.0 °F - 17.6 °F 39% 29.94 in 10.0 mi Calm Calm - N/A   Clear
7:55 PM 41.0 °F - 17.6 °F 39% 29.95 in 10.0 mi Calm Calm - N/A   Clear
8:15 PM 41.0 °F - 19.4 °F 42% 29.96 in 10.0 mi Calm Calm - N/A   Clear
8:35 PM 41.0 °F - 17.6 °F 39% 29.96 in 10.0 mi Calm Calm - N/A   Clear
8:55 PM 41.0 °F - 19.4 °F 42% 29.95 in 10.0 mi Calm Calm - N/A   Mostly Cloudy
9:15 PM 39.2 °F - 23.0 °F 52% 29.96 in 10.0 mi Calm Calm - N/A   Scattered Clouds
9:35 PM 39.2 °F 37.0 °F 23.0 °F 52% 29.96 in 10.0 mi NE 3.5 mph - N/A   Scattered Clouds
9:55 PM 39.2 °F 37.0 °F 23.0 °F 52% 29.97 in 10.0 mi NNE 3.5 mph - N/A   Scattered Clouds
10:15 PM 39.2 °F - 26.6 °F 61% 29.97 in 10.0 mi Calm Calm - N/A   Mostly Cloudy
10:35 PM 41.0 °F - 24.8 °F 53% 29.97 in 10.0 mi Calm Calm - N/A   Overcast
10:55 PM 41.0 °F - 23.0 °F 49% 29.97 in 10.0 mi Calm Calm - N/A   Overcast
11:15 PM 41.0 °F - 23.0 °F 49% 29.98 in 10.0 mi Calm Calm - N/A   Overcast
11:35 PM 41.0 °F - 21.2 °F 45% 29.99 in 10.0 mi Calm Calm - N/A   Overcast
11:55 PM 41.0 °F - 23.0 °F 49% 29.99 in 10.0 mi Calm Calm - N/A   Overcast